Time;durP1;ratioP1;P1;durP2;ratioP2;P2;SDS_P1;SDS_P2;PMS_P1;PMS_P2;Temp;Humidity;BMP_temperature;BMP_pressure;BME280_temperature;BME280_humidity;BME280_pressure;Samples;Min_cycle;Max_cycle;Signal;HPM_P1;HPM_P2
2023/11/18 06:46:10;;;;;;;7.97;5.63;;;;;;;;;;10673439;27;20115;-86
2023/11/18 06:51:11;;;;;;;7.57;5.50;;;;;;;;;;10658658;27;20027;-86
2023/11/18 08:03:43;;;;;;;12.00;7.93;;;;;;;;;;10566074;28;20047;-85
2023/11/18 08:08:48;;;;;;;14.52;9.68;;;;;;;;;;10565809;28;20048;-83
2023/11/18 08:13:50;;;;;;;;;;;;;;;;;;10546420;28;20042;-82
2023/11/18 08:18:51;;;;;;;9.25;7.57;;;;;;;;;;10542630;28;19904;-83
2023/11/18 08:23:53;;;;;;;9.73;7.80;;;;;;;;;;10541343;28;20051;-82
2023/11/18 08:28:54;;;;;;;9.63;7.38;;;;;;;;;;10558418;28;20475;-82
2023/11/18 08:33:55;;;;;;;9.70;7.90;;;;;;;;;;10536597;28;20032;-82
2023/11/18 08:38:57;;;;;;;;;;;;;;;;;;10545095;28;20044;-82
2023/11/18 08:43:58;;;;;;;10.32;7.90;;;;;;;;;;10543657;28;19939;-82
2023/11/18 08:49:06;;;;;;;;;;;;;;;;;;10541537;28;20067;-83
2023/11/18 08:54:22;;;;;;;8.15;6.38;;;;;;;;;;10540683;28;19908;-83
2023/11/18 08:59:24;;;;;;;8.93;6.75;;;;;;;;;;10557730;28;20024;-84
2023/11/18 09:04:27;;;;;;;7.35;6.30;;;;;;;;;;10540060;28;20440;-83
2023/11/18 09:09:29;;;;;;;8.77;6.50;;;;;;;;;;10539020;28;20039;-84
2023/11/18 09:14:31;;;;;;;6.47;5.78;;;;;;;;;;10538313;28;20032;-84
2023/11/18 09:19:35;;;;;;;7.55;5.80;;;;;;;;;;10555289;28;20212;-83
2023/11/18 09:24:36;;;;;;;7.32;5.50;;;;;;;;;;10538733;28;20094;-83
2023/11/18 09:29:37;;;;;;;7.28;6.03;;;;;;;;;;10537577;28;20101;-83
2023/11/18 09:34:39;;;;;;;;;;;;;;;;;;10535972;28;20043;-82
2023/11/18 09:39:45;;;;;;;7.97;6.50;;;;;;;;;;10537240;28;19904;-82
2023/11/18 09:44:48;;;;;;;6.22;4.50;;;;;;;;;;10533464;28;20039;-83
2023/11/18 09:49:50;;;;;;;5.65;4.75;;;;;;;;;;10528952;28;20035;-82
2023/11/18 09:55:04;;;;;;;8.80;6.93;;;;;;;;;;10536503;28;20032;-80
2023/11/18 10:05:30;;;;;;;7.07;4.80;;;;;;;;;;10549616;28;20040;-82
2023/11/18 10:10:35;;;;;;;5.75;5.07;;;;;;;;;;10530248;28;20039;-80
2023/11/18 10:15:39;;;;;;;6.10;5.15;;;;;;;;;;10530657;28;20032;-82
2023/11/18 10:20:41;;;;;;;8.68;6.15;;;;;;;;;;10531820;28;20093;-82
2023/11/18 10:25:48;;;;;;;9.25;5.25;;;;;;;;;;10530010;28;20117;-81
2023/11/18 10:30:50;;;;;;;8.45;5.07;;;;;;;;;;10531834;28;20043;-81
2023/11/18 10:35:52;;;;;;;6.53;4.53;;;;;;;;;;10531595;28;20032;-81
2023/11/18 10:40:55;;;;;;;6.65;5.40;;;;;;;;;;10532390;28;20028;-83
2023/11/18 10:46:22;;;;;;;6.13;4.03;;;;;;;;;;10530491;28;20047;-82
2023/11/18 10:51:33;;;;;;;7.03;4.32;;;;;;;;;;10529695;28;20032;-82
2023/11/18 10:56:42;;;;;;;7.07;4.78;;;;;;;;;;10527391;28;20034;-81
2023/11/18 11:01:44;;;;;;;6.65;3.90;;;;;;;;;;10529412;28;20032;-82
2023/11/18 11:06:52;;;;;;;9.90;5.60;;;;;;;;;;10528398;28;20139;-83
2023/11/18 11:12:03;;;;;;;5.80;4.00;;;;;;;;;;10556195;28;20036;-81
2023/11/18 11:17:17;;;;;;;7.10;4.68;;;;;;;;;;10545800;28;20028;-80
2023/11/18 11:22:24;;;;;;;7.45;4.82;;;;;;;;;;10535152;28;20072;-81
2023/11/18 11:27:38;;;;;;;8.15;5.70;;;;;;;;;;10527797;28;20036;-81
2023/11/18 11:32:51;;;;;;;4.82;3.30;;;;;;;;;;10553773;28;20024;-84
2023/11/18 11:38:03;;;;;;;5.65;3.65;;;;;;;;;;10535165;28;20404;-81
2023/11/18 11:43:09;;;;;;;4.90;3.30;;;;;;;;;;10532535;28;20392;-81
2023/11/18 11:48:19;;;;;;;7.22;3.80;;;;;;;;;;10536241;28;20455;-82
2023/11/18 11:53:27;;;;;;;5.85;3.30;;;;;;;;;;10551979;28;20448;-82
2023/11/18 11:58:28;;;;;;;4.13;2.95;;;;;;;;;;10532855;28;20032;-81
2023/11/18 12:03:36;;;;;;;;;;;;;;;;;;10533996;28;20091;-81
2023/11/18 12:08:37;;;;;;;4.13;2.75;;;;;;;;;;10535607;28;20210;-82
2023/11/18 12:13:44;;;;;;;4.82;3.00;;;;;;;;;;10532729;28;20036;-82
2023/11/18 12:19:10;;;;;;;8.23;4.75;;;;;;;;;;10532972;28;20059;-82
2023/11/18 12:24:22;;;;;;;6.60;3.65;;;;;;;;;;10533358;28;20059;-83
2023/11/18 12:29:34;;;;;;;7.45;4.15;;;;;;;;;;10557665;28;20040;-81
2023/11/18 12:34:35;;;;;;;;;;;;;;;;;;10531116;28;20538;-81
2023/11/18 12:39:43;;;;;;;4.30;3.28;;;;;;;;;;10531938;28;19906;-82
2023/11/18 12:44:56;;;;;;;8.65;4.13;;;;;;;;;;10535283;28;20046;-82
2023/11/18 12:50:00;;;;;;;7.32;4.10;;;;;;;;;;10531875;28;20032;-81
2023/11/18 12:55:03;;;;;;;8.95;4.13;;;;;;;;;;10552765;28;20032;-87
2023/11/18 13:00:04;;;;;;;10.77;4.97;;;;;;;;;;10538330;28;20035;-85
2023/11/18 13:05:09;;;;;;;5.75;3.90;;;;;;;;;;10535297;28;20044;-85
2023/11/18 13:21:57;;;;;;;7.03;4.50;;;;;;;;;;10570550;28;20024;-85
2023/11/18 13:27:06;;;;;;;7.90;4.65;;;;;;;;;;10538135;28;20499;-86
2023/11/18 13:32:33;;;;;;;5.32;3.28;;;;;;;;;;10554297;28;20022;-86
2023/11/18 13:37:44;;;;;;;6.40;3.72;;;;;;;;;;10526387;28;20032;-87
2023/11/18 13:43:08;;;;;;;4.65;3.17;;;;;;;;;;10574379;28;20040;-87
2023/11/18 15:30:05;;;;;;;;;;;;;;;;;;10553416;28;20023;-87
2023/11/18 19:00:27;;;;;;;4.00;3.38;;;;;;;;;;10599955;22;20165;-86
2023/11/18 19:05:28;;;;;;;12.00;10.82;;;;;;;;;;10576219;28;20127;-84
2023/11/18 19:10:29;;;;;;;2.40;1.67;;;;;;;;;;10580288;28;20035;-84
2023/11/18 19:15:31;;;;;;;4.32;2.40;;;;;;;;;;10568815;28;20046;-84
2023/11/18 19:20:32;;;;;;;1.30;0.80;;;;;;;;;;10569218;28;20035;-84
2023/11/18 19:25:33;;;;;;;2.55;1.23;;;;;;;;;;10572529;28;20091;-84
2023/11/18 19:30:34;;;;;;;19.27;15.55;;;;;;;;;;10572916;28;20085;-84
2023/11/18 19:35:35;;;;;;;1.65;1.30;;;;;;;;;;10592657;28;20120;-85
2023/11/18 19:40:36;;;;;;;2.53;0.90;;;;;;;;;;10573009;28;20456;-85
2023/11/18 19:45:37;;;;;;;9.60;7.97;;;;;;;;;;10575141;28;20122;-87
2023/11/18 19:50:38;;;;;;;2.55;2.33;;;;;;;;;;10595917;28;20074;-85
2023/11/18 19:55:39;;;;;;;1.13;1.00;;;;;;;;;;10585170;28;20042;-86
2023/11/18 20:00:43;;;;;;;2.58;1.13;;;;;;;;;;10584199;28;20028;-86
2023/11/18 20:05:45;;;;;;;1.80;1.00;;;;;;;;;;10584886;28;20509;-86
2023/11/18 20:10:46;;;;;;;1.60;0.90;;;;;;;;;;10602557;28;20031;-85
